Time;durP1;ratioP1;P1;durP2;ratioP2;P2;SDS_P1;SDS_P2;PMS_P1;PMS_P2;Temp;Humidity;BMP_temperature;BMP_pressure;BME280_temperature;BME280_humidity;BME280_pressure;Samples;Min_cycle;Max_cycle;Signal;HPM_P1;HPM_P2
2023/04/21 00:01:13;;;;;;;86.47;22.30;;;8.90;99.90;;;;;;5019764;28;20239;-87
2023/04/21 00:03:40;;;;;;;84.22;20.92;;;8.80;99.90;;;;;;5020824;28;20185;-87
2023/04/21 00:06:08;;;;;;;81.03;20.75;;;8.80;99.90;;;;;;5021011;28;20166;-88
2023/04/21 00:08:39;;;;;;;84.72;21.98;;;8.80;99.90;;;;;;5019528;28;20173;-87
2023/04/21 00:11:06;;;;;;;86.95;23.05;;;8.80;99.90;;;;;;5020131;28;20158;-87
2023/04/21 00:13:33;;;;;;;84.97;22.73;;;8.70;99.90;;;;;;5020046;28;20229;-86
2023/04/21 00:15:59;;;;;;;84.32;22.67;;;8.70;99.90;;;;;;5020719;28;20170;-87
2023/04/21 00:18:30;;;;;;;86.40;21.17;;;8.80;99.90;;;;;;5020796;28;20181;-87
2023/04/21 00:20:56;;;;;;;84.20;20.27;;;8.80;99.90;;;;;;5018425;28;20444;-87
2023/04/21 00:23:22;;;;;;;81.00;20.93;;;8.90;99.90;;;;;;5019273;28;20561;-86
2023/04/21 00:25:48;;;;;;;90.43;24.70;;;8.80;99.90;;;;;;5020311;28;20424;-87
2023/04/21 00:28:16;;;;;;;81.47;20.90;;;8.80;99.90;;;;;;5020799;28;20226;-87
2023/04/21 00:30:44;;;;;;;82.82;18.63;;;8.80;99.90;;;;;;5018907;28;20417;-87
2023/04/21 00:33:10;;;;;;;83.00;19.63;;;8.90;99.90;;;;;;5017283;28;20166;-86
2023/04/21 00:35:36;;;;;;;81.40;19.53;;;8.90;99.90;;;;;;5020125;28;20188;-87
2023/04/21 00:38:06;;;;;;;87.10;23.10;;;9.00;99.90;;;;;;5019393;28;20413;-87
2023/04/21 00:40:32;;;;;;;82.40;19.10;;;9.00;99.90;;;;;;5020206;28;20173;-87
2023/04/21 00:42:58;;;;;;;86.07;21.10;;;9.00;99.90;;;;;;5020225;28;20158;-86
2023/04/21 00:45:24;;;;;;;86.20;20.67;;;9.00;99.90;;;;;;5020270;28;20193;-87
2023/04/21 00:47:52;;;;;;;83.77;21.23;;;9.00;99.90;;;;;;5019331;28;20241;-86
2023/04/21 00:50:18;;;;;;;88.15;20.88;;;8.90;99.90;;;;;;5019665;28;20598;-86
2023/04/21 00:52:45;;;;;;;83.50;19.07;;;8.90;99.90;;;;;;5019347;28;20177;-87
2023/04/21 00:55:11;;;;;;;83.63;20.73;;;8.90;99.90;;;;;;5018654;28;20253;-87
2023/04/21 00:57:38;;;;;;;83.45;20.67;;;8.90;99.90;;;;;;5017979;28;20170;-86
2023/04/21 01:00:05;;;;;;;88.28;22.70;;;8.80;99.90;;;;;;5018863;28;20634;-87
2023/04/21 01:02:33;;;;;;;82.00;21.95;;;8.80;99.90;;;;;;5017214;28;20198;-86
2023/04/21 01:04:59;;;;;;;85.45;22.75;;;8.80;99.90;;;;;;5019731;28;20189;-87
2023/04/21 01:07:24;;;;;;;83.27;21.83;;;8.80;99.90;;;;;;5018836;28;20166;-87
2023/04/21 01:09:50;;;;;;;83.53;19.60;;;8.80;99.90;;;;;;5017492;28;20170;-86
2023/04/21 01:12:16;;;;;;;82.77;20.20;;;8.90;99.90;;;;;;5018416;28;20622;-86
2023/04/21 01:14:42;;;;;;;85.93;20.87;;;8.90;99.90;;;;;;5017227;28;20200;-86
2023/04/21 01:17:11;;;;;;;85.97;22.87;;;8.90;99.90;;;;;;5018455;28;20166;-86
2023/04/21 01:19:40;;;;;;;85.95;22.30;;;8.80;99.90;;;;;;5016539;28;20173;-86
2023/04/21 01:22:10;;;;;;;84.93;21.40;;;8.80;99.90;;;;;;5018190;28;20213;-86
2023/04/21 01:24:39;;;;;;;85.95;22.67;;;8.80;99.90;;;;;;5018010;28;20178;-87
2023/04/21 01:27:14;;;;;;;85.45;22.55;;;8.70;99.90;;;;;;5018998;28;20257;-86
2023/04/21 01:29:45;;;;;;;85.80;22.58;;;8.70;99.90;;;;;;5017561;28;20165;-87
2023/04/21 01:32:17;;;;;;;88.18;22.67;;;8.70;99.90;;;;;;5020006;28;20165;-87
2023/04/21 01:34:44;;;;;;;87.82;23.48;;;8.70;99.90;;;;;;5019396;28;20279;-86
2023/04/21 01:37:12;;;;;;;85.88;21.17;;;8.70;99.90;;;;;;5017448;28;20184;-86
2023/04/21 01:39:39;;;;;;;85.53;20.35;;;8.70;99.90;;;;;;5019227;28;20172;-86
2023/04/21 01:42:08;;;;;;;87.57;22.10;;;8.70;99.90;;;;;;5019000;28;20614;-86
2023/04/21 01:44:34;;;;;;;88.95;22.20;;;8.70;99.90;;;;;;5018147;28;20629;-86
2023/04/21 01:47:00;;;;;;;86.93;21.88;;;8.70;99.90;;;;;;5018501;28;20260;-86
2023/04/21 01:49:25;;;;;;;88.27;23.67;;;8.70;99.90;;;;;;5017713;28;20166;-87
2023/04/21 01:51:54;;;;;;;87.57;22.73;;;8.70;99.90;;;;;;5019478;28;20186;-86
2023/04/21 01:54:19;;;;;;;89.32;24.85;;;8.70;99.90;;;;;;5017757;28;20186;-85
2023/04/21 01:56:45;;;;;;;86.87;22.57;;;8.60;99.90;;;;;;5017328;28;20165;-86
2023/04/21 01:59:11;;;;;;;89.13;24.83;;;8.60;99.90;;;;;;5018156;28;20174;-86
2023/04/21 02:01:36;;;;;;;88.73;24.33;;;8.60;99.90;;;;;;5018933;28;20436;-87
2023/04/21 02:04:05;;;;;;;85.47;22.17;;;8.60;99.90;;;;;;5017612;28;20735;-87
2023/04/21 02:06:31;;;;;;;88.55;23.17;;;8.70;99.90;;;;;;5017847;28;20162;-86
2023/04/21 02:08:59;;;;;;;86.90;23.10;;;8.60;99.90;;;;;;5017574;28;20535;-87
2023/04/21 02:11:25;;;;;;;90.50;23.48;;;8.60;99.90;;;;;;5019111;28;20189;-87
2023/04/21 02:13:57;;;;;;;87.43;21.73;;;8.60;99.90;;;;;;5018561;28;20186;-87
2023/04/21 02:16:25;;;;;;;88.40;22.90;;;8.70;99.90;;;;;;5017120;28;20257;-87
2023/04/21 02:18:56;;;;;;;91.13;21.30;;;8.60;99.90;;;;;;5017708;28;20176;-87
2023/04/21 02:21:24;;;;;;;89.43;22.90;;;8.60;99.90;;;;;;5018254;28;20178;-87
2023/04/21 02:23:50;;;;;;;89.53;22.85;;;8.60;99.90;;;;;;5018143;28;20356;-87
2023/04/21 02:26:16;;;;;;;87.68;21.15;;;8.50;99.90;;;;;;5017939;28;20173;-87
2023/04/21 02:28:42;;;;;;;87.37;22.30;;;8.50;99.90;;;;;;5016342;28;20637;-87
2023/04/21 02:31:07;;;;;;;86.93;22.23;;;8.40;99.90;;;;;;5015280;28;21004;-86
2023/04/21 02:33:34;;;;;;;91.43;23.27;;;8.40;99.90;;;;;;5014853;28;20576;-87
2023/04/21 02:36:00;;;;;;;88.35;21.98;;;8.30;99.90;;;;;;5015068;28;20602;-86
2023/04/21 02:38:29;;;;;;;88.30;21.57;;;8.30;99.90;;;;;;5015920;28;20190;-87
2023/04/21 02:40:58;;;;;;;86.97;23.50;;;8.20;99.90;;;;;;5015031;28;20585;-86
2023/04/21 02:43:24;;;;;;;85.13;20.95;;;8.20;99.90;;;;;;5016320;28;20255;-86
2023/04/21 02:45:50;;;;;;;86.80;21.75;;;8.10;99.90;;;;;;5015528;28;20166;-86
2023/04/21 02:48:21;;;;;;;86.57;21.47;;;8.30;99.90;;;;;;5014827;28;20224;-87
2023/04/21 02:50:52;;;;;;;92.97;24.70;;;8.20;99.90;;;;;;5016455;28;20404;-87
2023/04/21 02:53:21;;;;;;;89.80;23.42;;;8.10;99.90;;;;;;5016107;28;20189;-87
2023/04/21 02:55:47;;;;;;;87.38;22.80;;;8.10;99.90;;;;;;5016325;28;20598;-87
2023/04/21 02:58:12;;;;;;;87.30;22.07;;;8.10;99.90;;;;;;5017025;28;20197;-87
2023/04/21 03:00:38;;;;;;;88.17;23.63;;;8.10;99.90;;;;;;5014864;28;20448;-86
2023/04/21 03:03:04;;;;;;;90.13;23.10;;;8.00;99.90;;;;;;5014872;28;20909;-87
2023/04/21 03:05:30;;;;;;;88.37;22.40;;;8.00;99.90;;;;;;5014665;28;20653;-87
2023/04/21 03:07:55;;;;;;;90.73;24.87;;;8.00;99.90;;;;;;5018289;28;20172;-86
2023/04/21 03:10:24;;;;;;;90.60;23.90;;;7.90;99.90;;;;;;5018523;28;20172;-86
2023/04/21 03:12:49;;;;;;;91.20;23.85;;;8.00;99.90;;;;;;5018489;28;20196;-87
2023/04/21 03:15:15;;;;;;;89.77;23.03;;;7.90;99.90;;;;;;5018674;28;20594;-86
2023/04/21 03:17:41;;;;;;;89.77;21.90;;;8.00;99.90;;;;;;5019046;28;20166;-86
2023/04/21 03:20:08;;;;;;;91.53;23.93;;;8.00;99.90;;;;;;5018756;28;20420;-87
2023/04/21 03:22:40;;;;;;;89.75;23.60;;;8.00;99.90;;;;;;5019754;28;20792;-86
2023/04/21 03:25:06;;;;;;;88.55;21.73;;;8.00;99.90;;;;;;5018609;28;20189;-86
2023/04/21 03:27:32;;;;;;;90.30;24.60;;;8.00;99.90;;;;;;5018704;28;20232;-86
2023/04/21 03:29:58;;;;;;;88.72;24.65;;;7.90;99.90;;;;;;5019750;28;20440;-87
2023/04/21 03:32:24;;;;;;;87.23;22.87;;;7.80;99.90;;;;;;5019657;28;20641;-87
2023/04/21 03:34:50;;;;;;;93.50;24.97;;;7.70;99.90;;;;;;5018982;28;20433;-86
2023/04/21 03:37:15;;;;;;;91.50;26.10;;;7.60;99.90;;;;;;5019759;28;20658;-86
2023/04/21 03:39:41;;;;;;;92.07;25.93;;;7.60;99.90;;;;;;5019160;28;20255;-87
2023/04/21 03:42:07;;;;;;;93.77;25.73;;;7.60;99.90;;;;;;5018159;28;20996;-86
2023/04/21 03:44:33;;;;;;;93.33;26.00;;;7.60;99.90;;;;;;5018140;28;20556;-85
2023/04/21 03:47:04;;;;;;;89.47;23.27;;;7.60;99.90;;;;;;5019786;28;20161;-86
2023/04/21 03:49:32;;;;;;;95.53;23.42;;;7.70;99.90;;;;;;5018103;28;20166;-86
2023/04/21 03:51:58;;;;;;;89.35;23.98;;;7.60;99.90;;;;;;5019995;28;20181;-86
2023/04/21 03:54:24;;;;;;;86.77;23.43;;;7.60;99.90;;;;;;5022806;28;20235;-86
2023/04/21 03:56:53;;;;;;;86.67;22.80;;;7.60;99.90;;;;;;5021569;28;20227;-86
2023/04/21 03:59:23;;;;;;;91.47;24.23;;;7.50;99.90;;;;;;5020805;28;20912;-87
2023/04/21 04:01:52;;;;;;;89.05;23.20;;;7.50;99.90;;;;;;5021079;28;20243;-87
2023/04/21 04:04:17;;;;;;;87.65;21.83;;;7.50;99.90;;;;;;5020657;28;20202;-87
2023/04/21 04:06:43;;;;;;;91.10;23.10;;;7.40;99.90;;;;;;5021252;28;20238;-87
2023/04/21 04:09:09;;;;;;;90.10;24.60;;;7.30;99.90;;;;;;5022153;28;20162;-86
2023/04/21 04:11:35;;;;;;;87.85;22.55;;;7.30;99.90;;;;;;5021969;28;20190;-86
2023/04/21 04:14:01;;;;;;;94.93;24.80;;;7.10;99.90;;;;;;5019915;28;20745;-86
2023/04/21 04:16:27;;;;;;;89.85;23.45;;;7.30;99.90;;;;;;5020325;28;20173;-86
2023/04/21 04:18:56;;;;;;;90.50;24.63;;;7.30;99.90;;;;;;5019706;28;20192;-86
2023/04/21 04:21:21;;;;;;;91.57;24.08;;;7.30;99.90;;;;;;5020395;28;20186;-87
2023/04/21 04:23:51;;;;;;;87.63;23.60;;;7.20;99.90;;;;;;5020688;28;20185;-87
2023/04/21 04:26:28;;;;;;;88.50;22.40;;;7.20;99.90;;;;;;5019969;28;20173;-86
2023/04/21 04:28:55;;;;;;;88.20;23.48;;;7.20;99.90;;;;;;5019616;28;20166;-86
2023/04/21 04:31:29;;;;;;;89.40;23.38;;;7.20;99.90;;;;;;5020972;28;20177;-86
2023/04/21 04:33:57;;;;;;;87.97;22.83;;;7.20;99.90;;;;;;5019924;28;20320;-87
2023/04/21 04:36:32;;;;;;;94.97;24.48;;;7.20;99.90;;;;;;5018696;28;20174;-87
2023/04/21 04:39:11;;;;;;;87.15;24.88;;;7.20;99.90;;;;;;5018720;28;20165;-86
2023/04/21 04:41:37;;;;;;;92.50;25.25;;;7.10;99.90;;;;;;5020687;28;20628;-87
2023/04/21 04:44:04;;;;;;;93.75;25.42;;;7.10;99.90;;;;;;5018278;28;20196;-86
2023/04/21 04:46:36;;;;;;;86.13;22.35;;;7.00;99.90;;;;;;5018289;28;20162;-87
2023/04/21 04:49:06;;;;;;;90.38;23.67;;;7.00;99.90;;;;;;5019036;28;20166;-87
2023/04/21 04:51:37;;;;;;;89.15;25.52;;;7.00;99.90;;;;;;5019523;28;20237;-87
2023/04/21 04:54:06;;;;;;;86.00;24.05;;;7.00;99.90;;;;;;5018265;28;20189;-87
2023/04/21 04:56:37;;;;;;;87.97;23.27;;;7.00;99.90;;;;;;5019132;28;20625;-86
2023/04/21 04:59:11;;;;;;;89.60;26.63;;;6.90;99.90;;;;;;5017836;28;20177;-86
2023/04/21 05:01:41;;;;;;;90.88;22.75;;;7.00;99.90;;;;;;5018660;28;20279;-87
2023/04/21 05:04:10;;;;;;;87.20;22.00;;;7.00;99.90;;;;;;5017747;28;20653;-87
2023/04/21 05:06:36;;;;;;;90.15;23.85;;;7.00;99.90;;;;;;5018316;28;20224;-87
2023/04/21 05:09:04;;;;;;;88.25;21.77;;;7.00;99.90;;;;;;5017155;28;20162;-87
2023/04/21 05:11:35;;;;;;;87.43;22.52;;;7.00;99.90;;;;;;5017863;28;20200;-87
2023/04/21 05:14:04;;;;;;;90.95;22.88;;;7.10;99.90;;;;;;5016749;28;20622;-87
2023/04/21 05:16:30;;;;;;;91.95;25.38;;;7.10;99.90;;;;;;5016479;28;20170;-87
2023/04/21 05:19:03;;;;;;;86.27;20.60;;;7.10;99.90;;;;;;5017123;28;20181;-87
2023/04/21 05:21:34;;;;;;;89.25;24.88;;;7.00;99.90;;;;;;5019328;28;20184;-87
2023/04/21 05:24:03;;;;;;;87.60;23.13;;;7.10;99.90;;;;;;5019062;28;20186;-87
2023/04/21 05:26:43;;;;;;;90.95;24.48;;;7.10;99.90;;;;;;5017752;28;20637;-87
2023/04/21 05:29:33;;;;;;;91.85;24.42;;;7.10;99.90;;;;;;5018116;28;20169;-87
2023/04/21 05:32:01;;;;;;;86.10;22.35;;;7.10;99.90;;;;;;5018558;28;20178;-86
2023/04/21 05:34:32;;;;;;;92.22;25.15;;;7.10;99.90;;;;;;5017804;28;20204;-87
2023/04/21 05:37:03;;;;;;;91.05;25.35;;;7.10;99.90;;;;;;5017435;28;20166;-87
2023/04/21 05:39:40;;;;;;;90.75;24.60;;;7.10;99.90;;;;;;5017394;28;20209;-87
2023/04/21 05:42:20;;;;;;;92.53;25.27;;;7.10;99.90;;;;;;5018965;28;20178;-87
2023/04/21 05:44:49;;;;;;;94.15;26.50;;;7.10;99.90;;;;;;5017982;28;20684;-87
2023/04/21 05:47:21;;;;;;;92.70;26.80;;;7.10;99.90;;;;;;5018199;28;20166;-87
2023/04/21 05:49:52;;;;;;;97.47;28.35;;;7.20;99.90;;;;;;5016910;28;20261;-87
2023/04/21 05:52:29;;;;;;;96.00;27.33;;;7.20;99.90;;;;;;5017363;28;20224;-88
2023/04/21 05:55:01;;;;;;;93.68;25.52;;;7.30;99.90;;;;;;5017307;28;20196;-87
2023/04/21 05:57:27;;;;;;;92.38;25.83;;;7.40;99.90;;;;;;5018557;28;20176;-87
2023/04/21 05:59:57;;;;;;;102.68;26.50;;;7.50;99.90;;;;;;5017957;28;20178;-87
2023/04/21 06:02:23;;;;;;;93.45;27.67;;;7.50;99.90;;;;;;5018502;28;20182;-87
2023/04/21 06:04:52;;;;;;;95.30;27.57;;;7.40;99.90;;;;;;5017687;28;20189;-87
2023/04/21 06:07:18;;;;;;;92.22;26.20;;;7.50;99.90;;;;;;5017098;28;20166;-87
2023/04/21 06:09:50;;;;;;;94.60;28.60;;;7.60;99.90;;;;;;5017054;28;20166;-86
2023/04/21 06:12:16;;;;;;;92.45;26.30;;;7.70;99.90;;;;;;5016359;28;20174;-86
2023/04/21 06:14:44;;;;;;;93.80;25.40;;;7.80;99.90;;;;;;5017727;28;20606;-87
2023/04/21 06:17:10;;;;;;;102.80;29.63;;;7.70;99.90;;;;;;5017769;28;20173;-87
2023/04/21 06:19:39;;;;;;;97.50;28.23;;;7.70;99.90;;;;;;5016596;28;20170;-87
2023/04/21 06:22:05;;;;;;;100.63;27.70;;;7.70;99.90;;;;;;5016594;28;20289;-86
2023/04/21 06:24:33;;;;;;;95.03;27.80;;;7.70;99.90;;;;;;5018243;28;20221;-88
2023/04/21 06:27:00;;;;;;;101.18;31.50;;;7.80;99.90;;;;;;5018317;28;20172;-87
2023/04/21 06:29:26;;;;;;;99.40;30.98;;;7.80;99.90;;;;;;5016719;28;20178;-86
2023/04/21 06:31:54;;;;;;;96.77;31.13;;;7.90;99.90;;;;;;5017804;28;20249;-86
2023/04/21 06:34:20;;;;;;;104.80;34.42;;;8.00;99.90;;;;;;5016926;28;20554;-86
2023/04/21 06:36:46;;;;;;;100.77;31.47;;;8.00;99.90;;;;;;5018451;28;20165;-86
2023/04/21 06:39:11;;;;;;;104.27;37.87;;;8.10;99.90;;;;;;5018268;28;20196;-87
2023/04/21 06:41:37;;;;;;;96.73;35.13;;;8.20;99.90;;;;;;5016489;28;20276;-87
2023/04/21 06:44:03;;;;;;;100.50;35.10;;;8.30;99.90;;;;;;5018119;28;20182;-87
2023/04/21 06:46:31;;;;;;;102.23;31.63;;;8.50;99.90;;;;;;5016665;28;20174;-88
2023/04/21 06:48:57;;;;;;;95.50;30.85;;;8.60;99.90;;;;;;5018453;28;20169;-87
2023/04/21 06:51:23;;;;;;;100.20;30.47;;;8.60;99.90;;;;;;5018777;28;20185;-87
2023/04/21 06:53:49;;;;;;;97.00;31.77;;;8.70;99.90;;;;;;5018957;28;20196;-88
2023/04/21 06:56:15;;;;;;;93.05;28.25;;;8.80;99.90;;;;;;5017135;28;20178;-87
2023/04/21 06:58:40;;;;;;;96.30;28.30;;;8.90;99.90;;;;;;5016945;28;20668;-88
2023/04/21 07:01:06;;;;;;;97.13;26.63;;;8.90;99.90;;;;;;5017615;28;20189;-87
2023/04/21 07:03:32;;;;;;;97.70;25.53;;;8.90;99.90;;;;;;5018747;28;20182;-87
2023/04/21 07:05:57;;;;;;;101.43;26.07;;;9.00;99.90;;;;;;5018440;28;20224;-86
2023/04/21 07:08:24;;;;;;;104.10;25.80;;;9.00;99.90;;;;;;5017729;28;20166;-87
2023/04/21 07:10:49;;;;;;;99.80;27.08;;;9.00;99.90;;;;;;5017133;28;20236;-87
2023/04/21 07:13:16;;;;;;;99.50;25.97;;;9.00;99.90;;;;;;5018420;28;20589;-87
2023/04/21 07:15:45;;;;;;;100.07;27.45;;;9.10;99.90;;;;;;5017321;28;20170;-87
2023/04/21 07:18:11;;;;;;;95.72;26.60;;;9.10;99.90;;;;;;5017836;28;20514;-87
2023/04/21 07:20:37;;;;;;;97.17;25.77;;;9.20;99.90;;;;;;5017034;28;20173;-87
2023/04/21 07:23:02;;;;;;;102.87;30.20;;;9.10;99.90;;;;;;5016739;28;20478;-87
2023/04/21 07:25:28;;;;;;;96.87;26.57;;;9.10;99.90;;;;;;5017681;28;20220;-87
2023/04/21 07:27:54;;;;;;;97.17;24.87;;;9.00;99.90;;;;;;5017344;28;20182;-86
2023/04/21 07:30:20;;;;;;;100.90;25.97;;;9.20;99.90;;;;;;5015808;28;20170;-87
2023/04/21 07:32:45;;;;;;;96.67;25.53;;;9.30;99.90;;;;;;5016055;28;20412;-87
2023/04/21 07:35:11;;;;;;;98.30;24.80;;;9.40;99.90;;;;;;5016223;28;20552;-86
2023/04/21 07:37:38;;;;;;;95.93;25.10;;;9.50;99.90;;;;;;5015956;28;20158;-87
2023/04/21 07:40:10;;;;;;;101.05;25.35;;;9.60;99.90;;;;;;5016286;28;20177;-87
2023/04/21 07:42:35;;;;;;;101.80;25.05;;;9.70;99.90;;;;;;5016553;28;20190;-87
2023/04/21 07:45:09;;;;;;;98.13;25.97;;;9.70;99.90;;;;;;5017834;28;20209;-87
2023/04/21 07:47:35;;;;;;;98.18;24.58;;;9.80;99.90;;;;;;5018367;28;20150;-86
2023/04/21 07:50:00;;;;;;;100.10;25.03;;;9.80;99.90;;;;;;5017717;28;20173;-86
2023/04/21 07:52:26;;;;;;;100.87;25.80;;;9.90;99.90;;;;;;5018457;28;20549;-87
2023/04/21 07:54:52;;;;;;;97.30;24.57;;;10.10;99.90;;;;;;5020536;28;20677;-87
2023/04/21 07:57:18;;;;;;;93.83;24.00;;;10.10;99.90;;;;;;5021135;28;20162;-87
2023/04/21 07:59:43;;;;;;;92.00;21.37;;;10.00;99.90;;;;;;5020717;28;20416;-87
2023/04/21 08:02:09;;;;;;;87.43;21.07;;;10.00;99.90;;;;;;5021921;28;20683;-86
2023/04/21 08:04:35;;;;;;;87.23;19.60;;;10.00;99.90;;;;;;5019601;28;20190;-86
2023/04/21 08:07:01;;;;;;;86.10;20.35;;;10.10;99.90;;;;;;5093659;22;20225;-81
2023/04/21 08:09:27;;;;;;;89.00;20.23;;;10.20;99.90;;;;;;5016756;28;20178;-81
2023/04/21 08:11:53;;;;;;;88.30;19.07;;;10.20;99.90;;;;;;5016654;28;20178;-81
2023/04/21 08:14:22;;;;;;;91.43;20.45;;;10.10;99.90;;;;;;5016770;28;20437;-81
2023/04/21 08:16:51;;;;;;;88.78;21.02;;;10.10;99.90;;;;;;5017805;28;20186;-81
2023/04/21 08:19:17;;;;;;;91.78;21.38;;;10.20;99.90;;;;;;5017368;28;20753;-81
2023/04/21 08:21:42;;;;;;;86.77;21.17;;;10.30;99.90;;;;;;5017562;28;20202;-81
2023/04/21 08:24:08;;;;;;;92.07;21.87;;;10.30;99.90;;;;;;5017766;28;20727;-80
2023/04/21 08:26:34;;;;;;;87.17;19.13;;;10.20;99.90;;;;;;5018001;28;20170;-80
2023/04/21 08:29:00;;;;;;;97.78;21.45;;;10.20;99.90;;;;;;5017241;28;20170;-80
2023/04/21 08:31:26;;;;;;;90.57;21.20;;;10.30;99.90;;;;;;5017509;28;20158;-80
2023/04/21 08:33:53;;;;;;;90.20;21.50;;;10.50;99.90;;;;;;5017136;28;20178;-83
2023/04/21 08:36:19;;;;;;;90.63;21.13;;;10.60;99.90;;;;;;5015685;28;20173;-83
2023/04/21 08:38:45;;;;;;;86.20;18.40;;;10.70;99.90;;;;;;5016793;28;20530;-83
2023/04/21 08:41:11;;;;;;;86.60;18.27;;;10.80;99.90;;;;;;5016458;28;21015;-83
2023/04/21 08:43:37;;;;;;;89.13;20.42;;;10.70;99.90;;;;;;5016702;28;20810;-83
2023/04/21 08:46:06;;;;;;;86.23;18.80;;;10.70;99.90;;;;;;5016996;28;20158;-82
2023/04/21 08:48:35;;;;;;;88.00;20.48;;;10.80;99.90;;;;;;5016564;28;20189;-82
2023/04/21 08:51:01;;;;;;;91.40;22.42;;;11.00;99.90;;;;;;5016884;28;20173;-82
2023/04/21 08:53:27;;;;;;;88.15;19.50;;;11.20;99.90;;;;;;5016594;28;20186;-82
2023/04/21 08:55:55;;;;;;;87.70;20.00;;;11.20;99.90;;;;;;5016629;28;20188;-82
2023/04/21 08:58:21;;;;;;;87.85;20.15;;;11.20;99.90;;;;;;5016825;28;20409;-82
2023/04/21 09:00:48;;;;;;;92.55;20.13;;;11.30;99.90;;;;;;5017171;28;20659;-82
2023/04/21 09:03:24;;;;;;;84.90;18.15;;;11.10;99.90;;;;;;5015526;28;20173;-82
2023/04/21 09:06:08;;;;;;;90.72;19.63;;;11.10;99.90;;;;;;5016166;28;20160;-82
2023/04/21 09:08:37;;;;;;;88.80;19.45;;;11.20;99.90;;;;;;5015329;28;20572;-82
2023/04/21 09:11:03;;;;;;;90.22;18.83;;;11.40;99.90;;;;;;5016333;28;20158;-82
2023/04/21 09:13:33;;;;;;;81.80;17.60;;;11.70;99.90;;;;;;5016381;28;20204;-82
2023/04/21 09:16:03;;;;;;;82.38;17.13;;;11.80;99.90;;;;;;5016114;28;20412;-82
2023/04/21 09:18:38;;;;;;;85.63;19.70;;;11.90;99.90;;;;;;5016337;28;20231;-82
2023/04/21 09:21:11;;;;;;;86.60;19.58;;;12.20;99.90;;;;;;5014992;28;20189;-82
2023/04/21 09:23:47;;;;;;;82.38;17.63;;;12.20;99.90;;;;;;5016300;28;20192;-82
2023/04/21 09:26:14;;;;;;;87.90;18.98;;;12.20;99.90;;;;;;5015109;28;20192;-82
2023/04/21 09:28:45;;;;;;;85.07;21.25;;;12.30;99.90;;;;;;5014680;28;20169;-82
2023/04/21 09:31:15;;;;;;;84.50;19.17;;;12.30;99.90;;;;;;5016054;28;20207;-82
2023/04/21 09:33:46;;;;;;;84.50;18.92;;;12.30;99.90;;;;;;5019149;28;20194;-82
2023/04/21 09:36:19;;;;;;;82.10;17.33;;;12.30;99.90;;;;;;5021720;28;20166;-82
2023/04/21 09:38:57;;;;;;;88.15;20.75;;;12.20;99.90;;;;;;5021420;28;20200;-82
2023/04/21 09:41:24;;;;;;;86.97;21.85;;;12.20;99.90;;;;;;5021436;28;20181;-82
2023/04/21 09:43:50;;;;;;;83.63;16.45;;;12.30;99.90;;;;;;5019984;28;20186;-82
2023/04/21 09:46:17;;;;;;;87.00;19.48;;;12.40;99.90;;;;;;5019589;28;20169;-82
2023/04/21 09:48:44;;;;;;;90.72;21.60;;;12.50;99.90;;;;;;5020213;28;20535;-82
2023/04/21 09:51:14;;;;;;;85.95;18.40;;;12.60;99.90;;;;;;5019960;28;20177;-82
2023/04/21 09:53:41;;;;;;;84.80;17.35;;;12.80;99.90;;;;;;5019706;28;20661;-82
2023/04/21 09:56:12;;;;;;;81.93;16.23;;;12.90;99.90;;;;;;5019321;28;20249;-82
2023/04/21 09:58:46;;;;;;;84.35;16.35;;;13.00;99.90;;;;;;5020533;28;20142;-82
2023/04/21 10:01:12;;;;;;;82.50;16.08;;;13.20;99.90;;;;;;5018696;28;20190;-82
2023/04/21 10:03:42;;;;;;;83.25;16.20;;;13.40;99.90;;;;;;5018647;28;20676;-82
2023/04/21 10:06:08;;;;;;;82.43;15.63;;;13.40;99.90;;;;;;5019456;28;20192;-82
2023/04/21 10:08:35;;;;;;;85.93;15.50;;;13.30;99.90;;;;;;5019370;28;20161;-82
2023/04/21 10:11:02;;;;;;;86.00;16.17;;;13.10;99.90;;;;;;5019814;28;20185;-82
2023/04/21 10:13:29;;;;;;;81.95;17.45;;;13.10;99.90;;;;;;5019420;28;20661;-82
2023/04/21 10:16:06;;;;;;;84.25;16.45;;;13.20;99.90;;;;;;5017304;28;20173;-82
2023/04/21 10:18:37;;;;;;;83.37;15.70;;;13.00;99.90;;;;;;5019393;28;20157;-82
2023/04/21 10:21:05;;;;;;;82.22;13.50;;;13.10;99.90;;;;;;5017688;28;20450;-82
2023/04/21 10:23:34;;;;;;;89.22;14.80;;;13.40;99.90;;;;;;5017475;28;20189;-82
2023/04/21 10:26:05;;;;;;;81.30;14.93;;;13.60;99.90;;;;;;5017989;28;20170;-82
2023/04/21 10:28:47;;;;;;;79.90;14.90;;;13.80;99.90;;;;;;5018965;28;20180;-82
2023/04/21 10:31:22;;;;;;;79.68;14.60;;;13.80;99.90;;;;;;5018983;28;20393;-82
2023/04/21 10:34:12;;;;;;;80.40;14.10;;;14.20;95.60;;;;;;5017431;28;20188;-83
2023/04/21 10:36:58;;;;;;;81.60;15.40;;;14.20;55.90;;;;;;5017232;28;20796;-79
2023/04/21 10:39:35;;;;;;;82.45;15.73;;;14.00;49.80;;;;;;5018319;28;20406;-79
2023/04/21 10:42:19;;;;;;;77.53;13.27;;;14.10;52.00;;;;;;5018218;28;20588;-79
2023/04/21 10:44:57;;;;;;;79.90;13.38;;;14.20;42.70;;;;;;5016997;28;20532;-79
2023/04/21 10:47:37;;;;;;;76.60;15.02;;;14.30;48.90;;;;;;5018206;28;20514;-79
2023/04/21 10:50:15;;;;;;;78.95;13.15;;;14.50;24.70;;;;;;5018342;28;20656;-79
2023/04/21 10:52:46;;;;;;;79.50;14.00;;;14.70;22.00;;;;;;5018191;28;20546;-79
2023/04/21 10:55:14;;;;;;;79.00;15.30;;;14.80;15.70;;;;;;5017810;28;20456;-79
2023/04/21 10:57:43;;;;;;;78.87;14.63;;;14.60;15.30;;;;;;5016976;28;20419;-79
2023/04/21 11:00:10;;;;;;;79.00;15.23;;;14.70;10.70;;;;;;5017124;28;21000;-79
2023/04/21 11:02:36;;;;;;;78.17;16.27;;;15.00;15.50;;;;;;5017143;28;20951;-79
2023/04/21 11:05:04;;;;;;;77.30;13.90;;;15.30;12.40;;;;;;5016488;28;20487;-79
2023/04/21 11:07:30;;;;;;;80.80;17.17;;;15.40;3.30;;;;;;5015333;28;20427;-79
2023/04/21 11:10:05;;;;;;;79.30;14.97;;;15.60;7.80;;;;;;5015464;28;20404;-79
2023/04/21 11:12:33;;;;;;;77.37;13.60;;;15.70;1.00;;;;;;5015099;28;20178;-79
2023/04/21 11:15:02;;;;;;;79.80;11.87;;;15.90;1.00;;;;;;5015334;28;20432;-79
2023/04/21 11:17:27;;;;;;;80.43;12.37;;;16.00;1.00;;;;;;5013268;28;20496;-79
2023/04/21 11:19:55;;;;;;;74.60;10.10;;;16.20;1.00;;;;;;5014594;28;20454;-79
2023/04/21 11:22:23;;;;;;;72.97;9.30;;;16.30;1.00;;;;;;5013361;28;20200;-79
2023/04/21 11:24:54;;;;;;;73.33;10.37;;;16.30;1.00;;;;;;5013452;28;20430;-79
2023/04/21 11:27:21;;;;;;;71.87;9.30;;;16.30;1.00;;;;;;5016424;28;20470;-79
2023/04/21 11:29:48;;;;;;;75.60;9.30;;;16.40;1.00;;;;;;5018577;28;20401;-79
2023/04/21 11:32:15;;;;;;;76.43;8.47;;;16.50;1.00;;;;;;5018081;28;20779;-79
2023/04/21 11:34:41;;;;;;;74.60;10.20;;;16.80;1.00;;;;;;5018800;28;20479;-79
2023/04/21 11:37:15;;;;;;;75.47;12.37;;;17.00;1.00;;;;;;5018650;28;20412;-79
2023/04/21 11:39:42;;;;;;;74.13;11.57;;;17.10;1.00;;;;;;5017344;28;20420;-79
2023/04/21 11:42:10;;;;;;;75.43;11.70;;;17.20;1.00;;;;;;5016998;28;21030;-79
2023/04/21 11:44:41;;;;;;;77.70;11.20;;;17.40;1.00;;;;;;5018655;28;20450;-79
2023/04/21 11:47:21;;;;;;;74.10;11.27;;;17.70;1.00;;;;;;5018156;28;20407;-78
2023/04/21 11:49:55;;;;;;;74.53;9.97;;;17.70;1.00;;;;;;5018542;28;20934;-79
2023/04/21 11:52:28;;;;;;;73.07;10.60;;;17.60;1.00;;;;;;5017206;28;20401;-79
2023/04/21 11:54:59;;;;;;;72.77;9.17;;;17.80;1.00;;;;;;5017659;28;20459;-79
2023/04/21 11:57:31;;;;;;;74.80;9.87;;;18.00;1.00;;;;;;5017979;28;20768;-79
2023/04/21 12:00:01;;;;;;;76.80;9.93;;;18.20;1.00;;;;;;5016350;28;20848;-79
2023/04/21 12:02:30;;;;;;;73.90;8.70;;;18.20;1.00;;;;;;5017538;28;20444;-79
2023/04/21 12:04:59;;;;;;;74.17;8.77;;;18.50;1.00;;;;;;5017787;28;20769;-79
2023/04/21 12:07:25;;;;;;;72.97;11.43;;;18.80;1.00;;;;;;5017242;28;20421;-79
2023/04/21 12:09:52;;;;;;;72.97;12.77;;;18.60;1.00;;;;;;5017539;28;20559;-79
2023/04/21 12:12:18;;;;;;;72.60;13.47;;;18.40;1.00;;;;;;5017327;28;20401;-79
2023/04/21 12:14:44;;;;;;;75.87;13.43;;;18.30;1.00;;;;;;5017191;28;20766;-79
2023/04/21 12:17:10;;;;;;;72.17;12.73;;;18.40;1.00;;;;;;5016977;28;20166;-79
2023/04/21 12:19:38;;;;;;;74.23;14.87;;;18.50;1.00;;;;;;5016262;28;20456;-79
2023/04/21 12:22:08;;;;;;;76.47;13.67;;;18.40;1.00;;;;;;5015850;28;20221;-79
2023/04/21 12:24:34;;;;;;;72.60;11.43;;;18.40;1.00;;;;;;5017150;28;20554;-79
2023/04/21 12:27:00;;;;;;;74.17;13.50;;;18.30;1.00;;;;;;5016051;28;20409;-79
2023/04/21 12:29:26;;;;;;;72.57;11.87;;;18.30;1.00;;;;;;5016761;28;20459;-79
2023/04/21 12:31:51;;;;;;;73.73;14.20;;;18.40;1.00;;;;;;5016016;28;20808;-79
2023/04/21 12:34:17;;;;;;;74.27;13.67;;;18.30;1.00;;;;;;5015507;28;20680;-79
2023/04/21 12:36:43;;;;;;;73.93;13.47;;;18.50;1.00;;;;;;5016407;28;20702;-79
2023/04/21 12:39:09;;;;;;;74.50;11.27;;;18.60;1.00;;;;;;5016508;28;20170;-79